Corpus Christi, TX (78413)

5:03 PM CST on February 12, 2016 (GMT -0600)
Shannon Estates | | Change Station
CLOSE
Current Station
Personal Weather Station
Location: Corpus Christi, TX
Elevation: 36 ft
Nearby Weather Stations
Active Advisory: Dense Fog Advisory

Elev 36 ft 27.70 °N, 97.40 °W | Updated 6 minutes ago

Clear
Clear
74.8 °F
Feels Like 77 °F
N
7.3
Wind Variable Wind from SE

Today
High -- | Low -- °F
--% Chance of Precip.
Yesterday
High -- | Low -- °F
Precip. -- in
Pressure 30.18 in
Visibility 10.0 miles
Clouds Few 2000 ft
Few 25000 ft
Heat Index 77 °F
Dew Point 60 °F
Humidity 60%
Rainfall 0.00 in
Snow Depth Not available.
7:09 AM 6:18 PM
Waxing Crescent, 24% visible
METAR KNGP 122256Z 17012KT 10SM FEW020 FEW250 22/16 A3018 RMK AO2 SLP219 T02170161
Pressure 30.18 in
Visibility 10.0 miles
Clouds Few 2000 ft
Few 25000 ft
Heat Index 77 °F
Dew Point 60 °F
Humidity 60%
Rainfall 0.00 in
Snow Depth Not available.
7:09 AM 6:18 PM
Waxing Crescent, 24% visible
METAR KNGP 122256Z 17012KT 10SM FEW020 FEW250 22/16 A3018 RMK AO2 SLP219 T02170161

10-Day Weather Forecast

Almanac

Astronomy

Feb. 12, 2016 Rise Set
Actual Time
Civil Twilight
Nautical Twilight
Astronomical Twilight
Moon
Length of Visible Light
Length of Day
Tomorrow will be .
, % of the Moon is Illuminated

Today's Extremes

State Highs State Lows

Community

WunderPhotos

Upload Photos

1,892,431 photos uploaded!

WunderBlog® & News

Nearby

Air Quality

  Air Quality AQ Index Pollutant
Not available.

Snow Depth

Station Depth Elevation

Earthquake Activity

City Distance Mag. Time & Date
Minimum magnitude displayed is 2.5.

Coastal Water Temperatures

Place Temperature

Stations

Nearby Weather Stations

Station Location Temp. Windchill Dew Point Humidity Wind Precip. Elev Updated Type
                   

Watches & Warnings

Dense Fog Advisory
Issued: 2:46 PM CST Feb. 12, 2016 – National Weather Service

... Dense fog advisory in effect from 2 am to 10 am CST Saturday...

The National Weather Service in Corpus Christi has issued a dense
fog advisory... which is in effect from 2 am to 10 am CST
Saturday.

* Visibility... 1/4 mile or less.

* Impacts... greatly reduced visibilities will result in hazardous
driving conditions.

Precautionary/preparedness actions...

A dense fog advisory means visibilities will frequently be
reduced to less than one quarter mile. If driving... slow down...
use low-beam headlights... and leave plenty of distance ahead of
you.


Tj